sensor_id;sensor_type;location;lat;lon;timestamp;temperature;humidity
29453;DHT22;16424;50.956;5.320;2023-10-19T00:00:49;15.90;99.90
29453;DHT22;16424;50.956;5.320;2023-10-19T00:03:18;15.80;99.90
29453;DHT22;16424;50.956;5.320;2023-10-19T00:05:45;15.80;99.90
29453;DHT22;16424;50.956;5.320;2023-10-19T00:08:12;15.80;99.90
29453;DHT22;16424;50.956;5.320;2023-10-19T00:10:39;15.90;99.90
29453;DHT22;16424;50.956;5.320;2023-10-19T00:13:08;15.90;99.90
29453;DHT22;16424;50.956;5.320;2023-10-19T00:15:35;16.00;99.90
29453;DHT22;16424;50.956;5.320;2023-10-19T00:18:06;16.10;99.90
29453;DHT22;16424;50.956;5.320;2023-10-19T00:20:48;16.20;99.90
29453;DHT22;16424;50.956;5.320;2023-10-19T00:23:22;16.30;99.90
29453;DHT22;16424;50.956;5.320;2023-10-19T00:26:01;16.40;99.90
29453;DHT22;16424;50.956;5.320;2023-10-19T00:28:46;16.40;99.90
29453;DHT22;16424;50.956;5.320;2023-10-19T00:31:15;16.40;99.90
29453;DHT22;16424;50.956;5.320;2023-10-19T00:33:40;16.50;99.90
29453;DHT22;16424;50.956;5.320;2023-10-19T00:36:09;16.30;99.90
29453;DHT22;16424;50.956;5.320;2023-10-19T00:38:39;16.30;99.90
29453;DHT22;16424;50.956;5.320;2023-10-19T00:41:06;16.40;99.90
29453;DHT22;16424;50.956;5.320;2023-10-19T00:43:52;16.40;99.90
29453;DHT22;16424;50.956;5.320;2023-10-19T00:46:23;16.30;99.90
29453;DHT22;16424;50.956;5.320;2023-10-19T00:48:58;16.40;99.90
29453;DHT22;16424;50.956;5.320;2023-10-19T00:51:29;16.50;99.90
29453;DHT22;16424;50.956;5.320;2023-10-19T00:54:04;16.60;99.90
29453;DHT22;16424;50.956;5.320;2023-10-19T00:56:50;16.60;99.90
29453;DHT22;16424;50.956;5.320;2023-10-19T00:59:19;16.60;99.90
29453;DHT22;16424;50.956;5.320;2023-10-19T01:01:56;16.60;99.90
29453;DHT22;16424;50.956;5.320;2023-10-19T01:04:40;16.60;99.90
29453;DHT22;16424;50.956;5.320;2023-10-19T01:07:11;16.70;99.90
29453;DHT22;16424;50.956;5.320;2023-10-19T01:09:41;16.80;99.90
29453;DHT22;16424;50.956;5.320;2023-10-19T01:12:09;16.80;99.90
29453;DHT22;16424;50.956;5.320;2023-10-19T01:15:11;16.90;99.90
29453;DHT22;16424;50.956;5.320;2023-10-19T01:17:49;16.90;99.90
29453;DHT22;16424;50.956;5.320;2023-10-19T01:20:20;16.90;99.90
29453;DHT22;16424;50.956;5.320;2023-10-19T01:22:53;16.90;99.90
29453;DHT22;16424;50.956;5.320;2023-10-19T01:25:22;16.90;99.90
29453;DHT22;16424;50.956;5.320;2023-10-19T01:28:01;17.00;99.90
29453;DHT22;16424;50.956;5.320;2023-10-19T01:30:32;17.00;99.90
29453;DHT22;16424;50.956;5.320;2023-10-19T01:32:59;17.00;99.90
29453;DHT22;16424;50.956;5.320;2023-10-19T01:35:24;17.00;99.90
29453;DHT22;16424;50.956;5.320;2023-10-19T01:37:50;17.00;99.90
29453;DHT22;16424;50.956;5.320;2023-10-19T01:40:15;17.00;99.90
29453;DHT22;16424;50.956;5.320;2023-10-19T01:42:46;17.00;99.90
29453;DHT22;16424;50.956;5.320;2023-10-19T01:45:12;17.00;99.90
29453;DHT22;16424;50.956;5.320;2023-10-19T01:47:37;17.00;99.90
29453;DHT22;16424;50.956;5.320;2023-10-19T01:50:06;17.00;99.90
29453;DHT22;16424;50.956;5.320;2023-10-19T01:52:32;16.90;99.90
29453;DHT22;16424;50.956;5.320;2023-10-19T01:54:57;16.90;99.90
29453;DHT22;16424;50.956;5.320;2023-10-19T01:57:32;17.00;99.90
29453;DHT22;16424;50.956;5.320;2023-10-19T02:00:00;17.00;99.90
29453;DHT22;16424;50.956;5.320;2023-10-19T02:02:35;16.90;99.90
29453;DHT22;16424;50.956;5.320;2023-10-19T02:05:00;16.90;99.90
29453;DHT22;16424;50.956;5.320;2023-10-19T02:07:29;17.00;99.90
29453;DHT22;16424;50.956;5.320;2023-10-19T02:09:55;16.90;99.90
29453;DHT22;16424;50.956;5.320;2023-10-19T02:12:21;16.80;99.90
29453;DHT22;16424;50.956;5.320;2023-10-19T02:14:47;17.00;99.90
29453;DHT22;16424;50.956;5.320;2023-10-19T02:17:12;17.00;99.90
29453;DHT22;16424;50.956;5.320;2023-10-19T02:19:40;16.80;99.90
29453;DHT22;16424;50.956;5.320;2023-10-19T02:22:06;16.70;99.90
29453;DHT22;16424;50.956;5.320;2023-10-19T02:24:37;16.80;99.90
29453;DHT22;16424;50.956;5.320;2023-10-19T02:27:04;16.90;99.90
29453;DHT22;16424;50.956;5.320;2023-10-19T02:29:30;16.70;99.90
29453;DHT22;16424;50.956;5.320;2023-10-19T02:31:56;16.70;99.90
29453;DHT22;16424;50.956;5.320;2023-10-19T02:34:23;16.70;99.90
29453;DHT22;16424;50.956;5.320;2023-10-19T02:36:48;16.70;99.90
29453;DHT22;16424;50.956;5.320;2023-10-19T02:39:15;16.80;99.90
29453;DHT22;16424;50.956;5.320;2023-10-19T02:41:47;16.90;99.90
29453;DHT22;16424;50.956;5.320;2023-10-19T02:44:18;17.00;99.90
29453;DHT22;16424;50.956;5.320;2023-10-19T02:46:51;17.00;99.90
29453;DHT22;16424;50.956;5.320;2023-10-19T02:49:20;17.00;99.90
29453;DHT22;16424;50.956;5.320;2023-10-19T02:51:47;16.90;99.90
29453;DHT22;16424;50.956;5.320;2023-10-19T02:54:17;17.00;99.90
29453;DHT22;16424;50.956;5.320;2023-10-19T02:56:45;16.90;99.90
29453;DHT22;16424;50.956;5.320;2023-10-19T02:59:15;16.90;99.90
29453;DHT22;16424;50.956;5.320;2023-10-19T03:01:51;16.90;99.90
29453;DHT22;16424;50.956;5.320;2023-10-19T03:04:17;17.00;99.90
29453;DHT22;16424;50.956;5.320;2023-10-19T03:06:43;17.00;99.90
29453;DHT22;16424;50.956;5.320;2023-10-19T03:09:09;16.90;99.90
29453;DHT22;16424;50.956;5.320;2023-10-19T03:11:48;16.80;99.90
29453;DHT22;16424;50.956;5.320;2023-10-19T03:14:17;16.80;99.90
29453;DHT22;16424;50.956;5.320;2023-10-19T03:16:43;16.90;99.90
29453;DHT22;16424;50.956;5.320;2023-10-19T03:19:11;16.90;99.90
29453;DHT22;16424;50.956;5.320;2023-10-19T03:21:38;16.90;99.90
29453;DHT22;16424;50.956;5.320;2023-10-19T03:24:14;16.90;99.90
29453;DHT22;16424;50.956;5.320;2023-10-19T03:27:05;16.90;99.90
29453;DHT22;16424;50.956;5.320;2023-10-19T03:29:39;16.80;99.90
29453;DHT22;16424;50.956;5.320;2023-10-19T03:32:05;16.60;99.90
29453;DHT22;16424;50.956;5.320;2023-10-19T03:34:35;16.50;99.90
29453;DHT22;16424;50.956;5.320;2023-10-19T03:37:01;16.50;99.90
29453;DHT22;16424;50.956;5.320;2023-10-19T03:39:37;16.40;99.90
29453;DHT22;16424;50.956;5.320;2023-10-19T03:42:04;16.30;99.90
29453;DHT22;16424;50.956;5.320;2023-10-19T03:44:35;16.10;99.90
29453;DHT22;16424;50.956;5.320;2023-10-19T03:47:30;16.20;99.90
29453;DHT22;16424;50.956;5.320;2023-10-19T03:50:02;16.20;99.90
29453;DHT22;16424;50.956;5.320;2023-10-19T03:52:39;16.20;99.90
29453;DHT22;16424;50.956;5.320;2023-10-19T03:55:05;16.10;99.90
29453;DHT22;16424;50.956;5.320;2023-10-19T03:57:37;16.20;99.90
29453;DHT22;16424;50.956;5.320;2023-10-19T04:00:07;16.10;99.90
29453;DHT22;16424;50.956;5.320;2023-10-19T04:02:36;16.10;99.90
29453;DHT22;16424;50.956;5.320;2023-10-19T04:05:04;16.10;99.90
29453;DHT22;16424;50.956;5.320;2023-10-19T04:07:30;16.10;99.90
29453;DHT22;16424;50.956;5.320;2023-10-19T04:09:58;16.10;99.90
29453;DHT22;16424;50.956;5.320;2023-10-19T04:12:38;16.20;99.90
29453;DHT22;16424;50.956;5.320;2023-10-19T04:15:05;16.30;99.90
29453;DHT22;16424;50.956;5.320;2023-10-19T04:17:48;16.20;99.90
29453;DHT22;16424;50.956;5.320;2023-10-19T04:20:18;16.20;99.90
29453;DHT22;16424;50.956;5.320;2023-10-19T04:22:49;16.30;99.90
29453;DHT22;16424;50.956;5.320;2023-10-19T04:25:17;16.20;99.90
29453;DHT22;16424;50.956;5.320;2023-10-19T04:27:49;16.30;99.90
29453;DHT22;16424;50.956;5.320;2023-10-19T04:30:17;16.30;99.90
29453;DHT22;16424;50.956;5.320;2023-10-19T04:32:52;16.40;99.90
29453;DHT22;16424;50.956;5.320;2023-10-19T04:35:19;16.40;99.90
29453;DHT22;16424;50.956;5.320;2023-10-19T04:37:54;16.40;99.90
29453;DHT22;16424;50.956;5.320;2023-10-19T04:40:21;16.40;99.90
29453;DHT22;16424;50.956;5.320;2023-10-19T04:42:52;16.30;99.90
29453;DHT22;16424;50.956;5.320;2023-10-19T04:45:19;16.30;99.90
29453;DHT22;16424;50.956;5.320;2023-10-19T04:47:45;16.20;99.90
29453;DHT22;16424;50.956;5.320;2023-10-19T04:50:12;16.20;99.90
29453;DHT22;16424;50.956;5.320;2023-10-19T04:52:38;16.30;99.90
29453;DHT22;16424;50.956;5.320;2023-10-19T04:55:04;16.30;99.90
29453;DHT22;16424;50.956;5.320;2023-10-19T04:57:30;16.30;99.90
29453;DHT22;16424;50.956;5.320;2023-10-19T04:59:56;16.30;99.90
29453;DHT22;16424;50.956;5.320;2023-10-19T05:02:22;16.20;99.90
29453;DHT22;16424;50.956;5.320;2023-10-19T05:04:48;16.20;99.90
29453;DHT22;16424;50.956;5.320;2023-10-19T05:07:15;16.40;99.90
29453;DHT22;16424;50.956;5.320;2023-10-19T05:09:45;16.40;99.90
29453;DHT22;16424;50.956;5.320;2023-10-19T05:12:13;16.50;99.90
29453;DHT22;16424;50.956;5.320;2023-10-19T05:14:40;16.50;99.90
29453;DHT22;16424;50.956;5.320;2023-10-19T05:17:07;16.60;99.90
29453;DHT22;16424;50.956;5.320;2023-10-19T05:19:35;16.60;99.90
29453;DHT22;16424;50.956;5.320;2023-10-19T05:22:02;16.60;99.90
29453;DHT22;16424;50.956;5.320;2023-10-19T05:24:28;16.60;99.90
29453;DHT22;16424;50.956;5.320;2023-10-19T05:26:55;16.70;99.90
29453;DHT22;16424;50.956;5.320;2023-10-19T05:29:21;16.60;99.90
29453;DHT22;16424;50.956;5.320;2023-10-19T05:31:47;16.60;99.90
29453;DHT22;16424;50.956;5.320;2023-10-19T05:34:13;16.60;99.90
29453;DHT22;16424;50.956;5.320;2023-10-19T05:36:38;16.70;99.90
29453;DHT22;16424;50.956;5.320;2023-10-19T05:39:10;16.60;99.90
29453;DHT22;16424;50.956;5.320;2023-10-19T05:41:36;16.60;99.90
29453;DHT22;16424;50.956;5.320;2023-10-19T05:44:03;16.60;99.90
29453;DHT22;16424;50.956;5.320;2023-10-19T05:46:29;16.70;99.90
29453;DHT22;16424;50.956;5.320;2023-10-19T05:48:54;16.60;99.90
29453;DHT22;16424;50.956;5.320;2023-10-19T05:51:21;16.40;99.90
29453;DHT22;16424;50.956;5.320;2023-10-19T05:53:47;16.50;99.90
29453;DHT22;16424;50.956;5.320;2023-10-19T05:56:14;16.40;99.90
29453;DHT22;16424;50.956;5.320;2023-10-19T05:58:45;16.50;99.90
29453;DHT22;16424;50.956;5.320;2023-10-19T06:01:14;16.50;99.90
29453;DHT22;16424;50.956;5.320;2023-10-19T06:03:39;16.50;99.90
29453;DHT22;16424;50.956;5.320;2023-10-19T06:06:05;16.50;99.90
29453;DHT22;16424;50.956;5.320;2023-10-19T06:08:31;16.40;99.90
29453;DHT22;16424;50.956;5.320;2023-10-19T06:10:57;16.40;99.90
29453;DHT22;16424;50.956;5.320;2023-10-19T06:13:23;16.40;99.90
29453;DHT22;16424;50.956;5.320;2023-10-19T06:15:48;16.40;99.90
29453;DHT22;16424;50.956;5.320;2023-10-19T06:18:14;16.30;99.90
29453;DHT22;16424;50.956;5.320;2023-10-19T06:20:44;16.40;99.90
29453;DHT22;16424;50.956;5.320;2023-10-19T06:23:10;16.50;99.90
29453;DHT22;16424;50.956;5.320;2023-10-19T06:25:37;16.50;99.90
29453;DHT22;16424;50.956;5.320;2023-10-19T06:28:04;16.30;99.90
29453;DHT22;16424;50.956;5.320;2023-10-19T06:30:30;16.20;99.90
29453;DHT22;16424;50.956;5.320;2023-10-19T06:32:57;16.10;99.90
29453;DHT22;16424;50.956;5.320;2023-10-19T06:35:27;16.30;99.90
29453;DHT22;16424;50.956;5.320;2023-10-19T06:37:56;16.30;99.90
29453;DHT22;16424;50.956;5.320;2023-10-19T06:40:21;16.30;99.90
29453;DHT22;16424;50.956;5.320;2023-10-19T06:42:48;16.30;99.90
29453;DHT22;16424;50.956;5.320;2023-10-19T06:45:15;16.40;99.90
29453;DHT22;16424;50.956;5.320;2023-10-19T06:47:47;16.50;99.90
29453;DHT22;16424;50.956;5.320;2023-10-19T06:50:15;16.60;99.90
29453;DHT22;16424;50.956;5.320;2023-10-19T06:52:44;16.50;99.90
29453;DHT22;16424;50.956;5.320;2023-10-19T06:55:12;16.50;99.90
29453;DHT22;16424;50.956;5.320;2023-10-19T06:57:51;16.50;99.90
29453;DHT22;16424;50.956;5.320;2023-10-19T07:00:19;16.60;99.90
29453;DHT22;16424;50.956;5.320;2023-10-19T07:02:56;16.60;99.90
29453;DHT22;16424;50.956;5.320;2023-10-19T07:05:22;16.60;99.90
29453;DHT22;16424;50.956;5.320;2023-10-19T07:07:55;16.60;99.90
29453;DHT22;16424;50.956;5.320;2023-10-19T07:10:22;16.60;99.90
29453;DHT22;16424;50.956;5.320;2023-10-19T07:12:51;16.70;99.90
29453;DHT22;16424;50.956;5.320;2023-10-19T07:15:19;16.70;99.90
29453;DHT22;16424;50.956;5.320;2023-10-19T07:17:46;16.70;99.90
29453;DHT22;16424;50.956;5.320;2023-10-19T07:20:13;16.60;99.90
29453;DHT22;16424;50.956;5.320;2023-10-19T07:23:00;16.80;99.90
29453;DHT22;16424;50.956;5.320;2023-10-19T07:25:29;16.60;99.90
29453;DHT22;16424;50.956;5.320;2023-10-19T07:27:56;16.60;99.90
29453;DHT22;16424;50.956;5.320;2023-10-19T07:30:25;16.70;99.90
29453;DHT22;16424;50.956;5.320;2023-10-19T07:32:53;16.70;99.90
29453;DHT22;16424;50.956;5.320;2023-10-19T07:35:21;16.90;99.90
29453;DHT22;16424;50.956;5.320;2023-10-19T07:37:48;16.90;99.90
29453;DHT22;16424;50.956;5.320;2023-10-19T07:40:15;17.20;99.90
29453;DHT22;16424;50.956;5.320;2023-10-19T07:42:43;17.90;99.90
29453;DHT22;16424;50.956;5.320;2023-10-19T07:45:09;18.10;99.90
29453;DHT22;16424;50.956;5.320;2023-10-19T07:47:40;18.60;99.90
29453;DHT22;16424;50.956;5.320;2023-10-19T07:50:07;19.40;99.90
29453;DHT22;16424;50.956;5.320;2023-10-19T07:52:38;20.10;99.90
29453;DHT22;16424;50.956;5.320;2023-10-19T07:55:05;20.20;99.90
29453;DHT22;16424;50.956;5.320;2023-10-19T07:57:31;20.80;99.90
29453;DHT22;16424;50.956;5.320;2023-10-19T07:59:56;20.70;99.90
29453;DHT22;16424;50.956;5.320;2023-10-19T08:02:22;20.70;99.90
29453;DHT22;16424;50.956;5.320;2023-10-19T08:04:50;20.90;99.90
29453;DHT22;16424;50.956;5.320;2023-10-19T08:07:17;20.90;99.90
29453;DHT22;16424;50.956;5.320;2023-10-19T08:09:43;20.50;99.90
29453;DHT22;16424;50.956;5.320;2023-10-19T08:12:09;20.70;99.90
29453;DHT22;16424;50.956;5.320;2023-10-19T08:14:36;21.40;99.90
29453;DHT22;16424;50.956;5.320;2023-10-19T08:17:02;21.90;99.90
29453;DHT22;16424;50.956;5.320;2023-10-19T08:19:28;22.00;99.90
29453;DHT22;16424;50.956;5.320;2023-10-19T08:21:57;21.20;99.90
29453;DHT22;16424;50.956;5.320;2023-10-19T08:24:23;21.40;99.90
29453;DHT22;16424;50.956;5.320;2023-10-19T08:26:48;21.90;99.90
29453;DHT22;16424;50.956;5.320;2023-10-19T08:29:16;22.40;99.90
29453;DHT22;16424;50.956;5.320;2023-10-19T08:31:44;21.80;99.90
29453;DHT22;16424;50.956;5.320;2023-10-19T08:34:13;20.90;99.90
29453;DHT22;16424;50.956;5.320;2023-10-19T08:36:39;20.40;99.90
29453;DHT22;16424;50.956;5.320;2023-10-19T08:39:06;19.90;99.90
29453;DHT22;16424;50.956;5.320;2023-10-19T08:41:37;19.40;99.90
29453;DHT22;16424;50.956;5.320;2023-10-19T08:44:04;19.20;99.90
29453;DHT22;16424;50.956;5.320;2023-10-19T08:46:40;18.70;99.90
29453;DHT22;16424;50.956;5.320;2023-10-19T08:49:11;18.70;99.90
29453;DHT22;16424;50.956;5.320;2023-10-19T08:51:38;18.60;99.90
29453;DHT22;16424;50.956;5.320;2023-10-19T08:54:08;18.70;99.90
29453;DHT22;16424;50.956;5.320;2023-10-19T08:56:36;19.00;99.90
29453;DHT22;16424;50.956;5.320;2023-10-19T08:59:02;19.40;99.90
29453;DHT22;16424;50.956;5.320;2023-10-19T09:01:28;19.60;99.90
29453;DHT22;16424;50.956;5.320;2023-10-19T09:04:00;20.00;99.90
29453;DHT22;16424;50.956;5.320;2023-10-19T09:06:26;20.40;99.90
29453;DHT22;16424;50.956;5.320;2023-10-19T09:08:55;20.30;99.90
29453;DHT22;16424;50.956;5.320;2023-10-19T09:11:20;20.00;99.90
29453;DHT22;16424;50.956;5.320;2023-10-19T09:13:49;19.60;99.90
29453;DHT22;16424;50.956;5.320;2023-10-19T09:16:19;19.30;99.90
29453;DHT22;16424;50.956;5.320;2023-10-19T09:18:50;19.10;99.90
29453;DHT22;16424;50.956;5.320;2023-10-19T09:21:20;19.00;99.90
29453;DHT22;16424;50.956;5.320;2023-10-19T09:23:52;18.80;99.90
29453;DHT22;16424;50.956;5.320;2023-10-19T09:26:21;18.70;99.90
29453;DHT22;16424;50.956;5.320;2023-10-19T09:28:51;18.70;99.90
29453;DHT22;16424;50.956;5.320;2023-10-19T09:31:17;18.60;99.90
29453;DHT22;16424;50.956;5.320;2023-10-19T09:33:44;18.40;99.90
29453;DHT22;16424;50.956;5.320;2023-10-19T09:36:11;18.40;99.90
29453;DHT22;16424;50.956;5.320;2023-10-19T09:38:50;18.60;99.90
29453;DHT22;16424;50.956;5.320;2023-10-19T09:41:20;18.60;99.90
29453;DHT22;16424;50.956;5.320;2023-10-19T09:43:50;18.60;99.90
29453;DHT22;16424;50.956;5.320;2023-10-19T09:46:22;18.50;99.90
29453;DHT22;16424;50.956;5.320;2023-10-19T09:48:48;18.30;99.90
29453;DHT22;16424;50.956;5.320;2023-10-19T09:51:15;18.50;99.90
29453;DHT22;16424;50.956;5.320;2023-10-19T09:53:44;18.70;99.90
29453;DHT22;16424;50.956;5.320;2023-10-19T09:56:18;18.60;99.90
29453;DHT22;16424;50.956;5.320;2023-10-19T09:58:52;18.70;99.90
29453;DHT22;16424;50.956;5.320;2023-10-19T10:01:18;18.90;99.90
29453;DHT22;16424;50.956;5.320;2023-10-19T10:03:52;18.80;99.90
29453;DHT22;16424;50.956;5.320;2023-10-19T10:06:56;18.90;99.90
29453;DHT22;16424;50.956;5.320;2023-10-19T10:09:13;19.00;99.90
29453;DHT22;16424;50.956;5.320;2023-10-19T10:11:49;19.40;99.90
29453;DHT22;16424;50.956;5.320;2023-10-19T10:14:25;19.60;99.90
29453;DHT22;16424;50.956;5.320;2023-10-19T10:17:04;19.60;99.90
29453;DHT22;16424;50.956;5.320;2023-10-19T10:19:35;19.40;99.90
29453;DHT22;16424;50.956;5.320;2023-10-19T10:22:10;19.20;99.90
29453;DHT22;16424;50.956;5.320;2023-10-19T10:24:46;19.00;99.90
29453;DHT22;16424;50.956;5.320;2023-10-19T10:27:16;19.30;99.90
29453;DHT22;16424;50.956;5.320;2023-10-19T10:29:57;19.20;99.90
29453;DHT22;16424;50.956;5.320;2023-10-19T10:32:53;19.40;99.90
29453;DHT22;16424;50.956;5.320;2023-10-19T10:38:06;19.20;99.90
29453;DHT22;16424;50.956;5.320;2023-10-19T10:40:51;19.30;99.90
29453;DHT22;16424;50.956;5.320;2023-10-19T10:43:18;19.40;99.90
29453;DHT22;16424;50.956;5.320;2023-10-19T10:45:44;19.60;99.90
29453;DHT22;16424;50.956;5.320;2023-10-19T10:48:14;19.70;99.90
29453;DHT22;16424;50.956;5.320;2023-10-19T10:50:40;19.60;99.90
29453;DHT22;16424;50.956;5.320;2023-10-19T10:53:10;19.80;99.90
29453;DHT22;16424;50.956;5.320;2023-10-19T10:55:37;20.00;99.90
29453;DHT22;16424;50.956;5.320;2023-10-19T10:58:03;20.30;99.90
29453;DHT22;16424;50.956;5.320;2023-10-19T11:00:29;20.40;99.90
29453;DHT22;16424;50.956;5.320;2023-10-19T11:03:03;20.70;99.90
29453;DHT22;16424;50.956;5.320;2023-10-19T11:05:30;20.80;99.90
29453;DHT22;16424;50.956;5.320;2023-10-19T11:08:08;20.80;99.90
29453;DHT22;16424;50.956;5.320;2023-10-19T11:10:39;20.70;99.90
29453;DHT22;16424;50.956;5.320;2023-10-19T11:13:07;20.60;99.90
29453;DHT22;16424;50.956;5.320;2023-10-19T11:15:37;20.50;99.90
29453;DHT22;16424;50.956;5.320;2023-10-19T11:18:07;20.50;99.90
29453;DHT22;16424;50.956;5.320;2023-10-19T11:20:33;20.20;99.90
29453;DHT22;16424;50.956;5.320;2023-10-19T11:22:59;20.30;99.90
29453;DHT22;16424;50.956;5.320;2023-10-19T11:25:29;20.30;99.90
29453;DHT22;16424;50.956;5.320;2023-10-19T11:28:00;20.20;99.90
29453;DHT22;16424;50.956;5.320;2023-10-19T11:30:28;20.40;99.90
29453;DHT22;16424;50.956;5.320;2023-10-19T11:32:55;20.50;99.90
29453;DHT22;16424;50.956;5.320;2023-10-19T11:35:25;20.50;99.90
29453;DHT22;16424;50.956;5.320;2023-10-19T11:37:55;20.30;99.90
29453;DHT22;16424;50.956;5.320;2023-10-19T11:40:22;20.20;99.90
29453;DHT22;16424;50.956;5.320;2023-10-19T11:42:48;20.20;99.90
29453;DHT22;16424;50.956;5.320;2023-10-19T11:45:15;20.30;99.90
29453;DHT22;16424;50.956;5.320;2023-10-19T11:47:45;20.30;99.90
29453;DHT22;16424;50.956;5.320;2023-10-19T11:50:11;20.10;99.90
29453;DHT22;16424;50.956;5.320;2023-10-19T11:52:40;20.00;99.90
29453;DHT22;16424;50.956;5.320;2023-10-19T11:55:07;20.10;99.90
29453;DHT22;16424;50.956;5.320;2023-10-19T11:57:34;19.80;99.90
29453;DHT22;16424;50.956;5.320;2023-10-19T12:00:02;19.70;99.90
29453;DHT22;16424;50.956;5.320;2023-10-19T12:02:34;19.80;99.90
29453;DHT22;16424;50.956;5.320;2023-10-19T12:05:01;19.70;99.90
29453;DHT22;16424;50.956;5.320;2023-10-19T12:07:28;19.70;99.90
29453;DHT22;16424;50.956;5.320;2023-10-19T12:09:53;19.50;99.90
29453;DHT22;16424;50.956;5.320;2023-10-19T12:12:19;19.40;99.90
29453;DHT22;16424;50.956;5.320;2023-10-19T12:14:45;19.30;99.90
29453;DHT22;16424;50.956;5.320;2023-10-19T12:17:11;19.20;99.90
29453;DHT22;16424;50.956;5.320;2023-10-19T12:19:36;19.00;99.90
29453;DHT22;16424;50.956;5.320;2023-10-19T12:22:02;18.70;99.90
29453;DHT22;16424;50.956;5.320;2023-10-19T12:24:28;18.70;99.90
29453;DHT22;16424;50.956;5.320;2023-10-19T12:26:54;18.70;99.90
29453;DHT22;16424;50.956;5.320;2023-10-19T12:29:20;18.70;99.90
29453;DHT22;16424;50.956;5.320;2023-10-19T12:31:49;18.60;99.90
29453;DHT22;16424;50.956;5.320;2023-10-19T12:34:15;18.60;99.90
29453;DHT22;16424;50.956;5.320;2023-10-19T12:36:42;18.50;99.90
29453;DHT22;16424;50.956;5.320;2023-10-19T12:39:10;18.40;99.90
29453;DHT22;16424;50.956;5.320;2023-10-19T12:41:41;18.40;99.90
29453;DHT22;16424;50.956;5.320;2023-10-19T12:44:07;18.20;99.90
29453;DHT22;16424;50.956;5.320;2023-10-19T12:46:37;18.30;99.90
29453;DHT22;16424;50.956;5.320;2023-10-19T12:49:06;18.10;99.90
29453;DHT22;16424;50.956;5.320;2023-10-19T12:51:38;18.30;99.90
29453;DHT22;16424;50.956;5.320;2023-10-19T12:54:07;18.20;99.90
29453;DHT22;16424;50.956;5.320;2023-10-19T12:56:35;18.30;99.90
29453;DHT22;16424;50.956;5.320;2023-10-19T12:59:01;18.20;99.90
29453;DHT22;16424;50.956;5.320;2023-10-19T13:01:27;18.10;99.90
29453;DHT22;16424;50.956;5.320;2023-10-19T13:03:53;18.00;99.90
29453;DHT22;16424;50.956;5.320;2023-10-19T13:06:19;18.10;99.90
29453;DHT22;16424;50.956;5.320;2023-10-19T13:08:45;18.00;99.90
29453;DHT22;16424;50.956;5.320;2023-10-19T13:11:11;18.00;99.90
29453;DHT22;16424;50.956;5.320;2023-10-19T13:13:40;17.90;99.90
29453;DHT22;16424;50.956;5.320;2023-10-19T13:16:05;17.90;99.90
29453;DHT22;16424;50.956;5.320;2023-10-19T13:18:32;18.00;99.90
29453;DHT22;16424;50.956;5.320;2023-10-19T13:21:01;18.00;99.90
29453;DHT22;16424;50.956;5.320;2023-10-19T13:23:31;18.00;99.90
29453;DHT22;16424;50.956;5.320;2023-10-19T13:25:59;17.90;99.90
29453;DHT22;16424;50.956;5.320;2023-10-19T13:28:42;18.10;99.90
29453;DHT22;16424;50.956;5.320;2023-10-19T13:31:08;18.10;99.90
29453;DHT22;16424;50.956;5.320;2023-10-19T13:33:39;18.10;99.90
29453;DHT22;16424;50.956;5.320;2023-10-19T13:36:07;18.00;99.90
29453;DHT22;16424;50.956;5.320;2023-10-19T13:38:33;18.00;99.90
29453;DHT22;16424;50.956;5.320;2023-10-19T13:40:59;18.10;99.90
29453;DHT22;16424;50.956;5.320;2023-10-19T13:43:24;18.10;99.90
29453;DHT22;16424;50.956;5.320;2023-10-19T13:45:50;18.10;99.90
29453;DHT22;16424;50.956;5.320;2023-10-19T13:48:18;18.20;99.90
29453;DHT22;16424;50.956;5.320;2023-10-19T13:50:47;18.50;99.90
29453;DHT22;16424;50.956;5.320;2023-10-19T13:53:18;18.90;99.90
29453;DHT22;16424;50.956;5.320;2023-10-19T13:55:45;18.90;99.90
29453;DHT22;16424;50.956;5.320;2023-10-19T13:58:11;18.50;99.90
29453;DHT22;16424;50.956;5.320;2023-10-19T14:00:41;18.70;99.90
29453;DHT22;16424;50.956;5.320;2023-10-19T14:03:08;18.60;99.90
29453;DHT22;16424;50.956;5.320;2023-10-19T14:05:40;18.90;99.90
29453;DHT22;16424;50.956;5.320;2023-10-19T14:08:09;19.10;99.90
29453;DHT22;16424;50.956;5.320;2023-10-19T14:10:35;19.20;99.90
29453;DHT22;16424;50.956;5.320;2023-10-19T14:13:01;19.20;99.90
29453;DHT22;16424;50.956;5.320;2023-10-19T14:15:27;19.20;99.90
29453;DHT22;16424;50.956;5.320;2023-10-19T14:17:59;19.10;99.90
29453;DHT22;16424;50.956;5.320;2023-10-19T14:20:25;19.00;99.90
29453;DHT22;16424;50.956;5.320;2023-10-19T14:22:51;18.90;99.90
29453;DHT22;16424;50.956;5.320;2023-10-19T14:25:26;18.80;99.90
29453;DHT22;16424;50.956;5.320;2023-10-19T14:27:54;18.90;99.90
29453;DHT22;16424;50.956;5.320;2023-10-19T14:30:24;18.80;99.90
29453;DHT22;16424;50.956;5.320;2023-10-19T14:32:50;18.80;99.90
29453;DHT22;16424;50.956;5.320;2023-10-19T14:35:19;18.80;99.90
29453;DHT22;16424;50.956;5.320;2023-10-19T14:37:50;18.60;99.90
29453;DHT22;16424;50.956;5.320;2023-10-19T14:40:20;18.60;99.90
29453;DHT22;16424;50.956;5.320;2023-10-19T14:42:47;18.60;99.90
29453;DHT22;16424;50.956;5.320;2023-10-19T14:45:14;18.80;99.90
29453;DHT22;16424;50.956;5.320;2023-10-19T14:47:46;19.00;99.90
29453;DHT22;16424;50.956;5.320;2023-10-19T14:50:12;19.20;99.90
29453;DHT22;16424;50.956;5.320;2023-10-19T14:52:44;19.30;99.90
29453;DHT22;16424;50.956;5.320;2023-10-19T14:55:10;19.40;99.90
29453;DHT22;16424;50.956;5.320;2023-10-19T14:57:37;19.60;99.90
29453;DHT22;16424;50.956;5.320;2023-10-19T15:00:11;19.60;99.90
29453;DHT22;16424;50.956;5.320;2023-10-19T15:02:44;19.30;99.90
29453;DHT22;16424;50.956;5.320;2023-10-19T15:05:13;19.20;99.90
29453;DHT22;16424;50.956;5.320;2023-10-19T15:07:42;19.30;99.90
29453;DHT22;16424;50.956;5.320;2023-10-19T15:10:10;19.10;99.90
29453;DHT22;16424;50.956;5.320;2023-10-19T15:12:40;18.90;99.90
29453;DHT22;16424;50.956;5.320;2023-10-19T15:15:07;18.90;99.90
29453;DHT22;16424;50.956;5.320;2023-10-19T15:17:39;18.90;99.90
29453;DHT22;16424;50.956;5.320;2023-10-19T15:20:06;18.90;99.90
29453;DHT22;16424;50.956;5.320;2023-10-19T15:22:32;18.70;99.90
29453;DHT22;16424;50.956;5.320;2023-10-19T15:24:58;18.70;99.90
29453;DHT22;16424;50.956;5.320;2023-10-19T15:27:24;18.90;99.90
29453;DHT22;16424;50.956;5.320;2023-10-19T15:29:50;18.90;99.90
29453;DHT22;16424;50.956;5.320;2023-10-19T15:32:16;18.90;99.90
29453;DHT22;16424;50.956;5.320;2023-10-19T15:34:42;18.90;99.90
29453;DHT22;16424;50.956;5.320;2023-10-19T15:37:08;19.10;99.90
29453;DHT22;16424;50.956;5.320;2023-10-19T15:39:34;19.10;99.90
29453;DHT22;16424;50.956;5.320;2023-10-19T15:42:00;19.00;99.90
29453;DHT22;16424;50.956;5.320;2023-10-19T15:44:26;19.10;99.90